Time;durP1;ratioP1;P1;durP2;ratioP2;P2;SDS_P1;SDS_P2;PMS_P1;PMS_P2;Temp;Humidity;BMP_temperature;BMP_pressure;BME280_temperature;BME280_humidity;BME280_pressure;Samples;Min_cycle;Max_cycle;Signal;HPM_P1;HPM_P2
2023/06/05 00:00:28;;;;;;;5.28;3.63;;;;;;;11.40;97.20;102197.13;1044438;28;20653;-56
2023/06/05 00:01:00;;;;;;;5.78;4.70;;;;;;;11.39;97.13;102202.63;1044242;28;20846;-55
2023/06/05 00:01:34;;;;;;;6.72;4.25;;;;;;;11.35;96.98;102196.84;1044840;28;20314;-48
2023/06/05 00:02:06;;;;;;;7.15;4.60;;;;;;;11.37;97.64;102194.81;1044861;28;20299;-56
2023/06/05 00:02:37;;;;;;;5.20;4.70;;;;;;;11.34;97.35;102197.88;1045137;28;20302;-56
2023/06/05 00:03:09;;;;;;;5.00;4.47;;;;;;;11.37;97.51;102199.34;1044350;28;20135;-55
2023/06/05 00:03:43;;;;;;;5.53;4.90;;;;;;;11.34;97.36;102195.22;1044806;28;20324;-56
2023/06/05 00:04:15;;;;;;;4.85;4.10;;;;;;;11.35;97.82;102196.84;1044521;28;20096;-56
2023/06/05 00:04:47;;;;;;;5.53;4.72;;;;;;;11.36;97.89;102197.69;1044172;28;20049;-56
2023/06/05 00:05:19;;;;;;;6.18;4.68;;;;;;;11.31;97.56;102197.44;1044292;28;20657;-55
2023/06/05 00:05:50;;;;;;;6.97;4.38;;;;;;;11.27;97.89;102198.81;1044449;28;20702;-53
2023/06/05 00:06:22;;;;;;;5.15;4.40;;;;;;;11.31;97.76;102195.59;1044639;28;20299;-55
2023/06/05 00:06:54;;;;;;;8.90;5.30;;;;;;;11.32;97.96;102193.75;1044647;28;20456;-56
2023/06/05 00:07:26;;;;;;;5.82;4.75;;;;;;;11.31;98.04;102198.25;1044946;28;20291;-55
2023/06/05 00:07:58;;;;;;;12.20;5.07;;;;;;;11.30;97.76;102193.94;1044703;28;20388;-57
2023/06/05 00:08:30;;;;;;;5.10;4.68;;;;;;;11.30;97.68;102201.94;1044672;28;20295;-56
2023/06/05 00:09:01;;;;;;;7.85;5.20;;;;;;;11.32;97.89;102196.41;1044654;28;20107;-56
2023/06/05 00:09:33;;;;;;;5.10;4.60;;;;;;;11.27;97.87;102199.66;1044705;28;20661;-55
2023/06/05 00:10:06;;;;;;;7.05;5.00;;;;;;;11.30;97.92;102204.59;1044443;28;20784;-56
2023/06/05 00:10:37;;;;;;;5.03;4.53;;;;;;;11.31;98.13;102206.25;1044176;28;20303;-56
2023/06/05 00:11:09;;;;;;;8.02;4.78;;;;;;;11.30;97.99;102199.28;1044352;28;20830;-56
2023/06/05 00:11:41;;;;;;;4.47;4.15;;;;;;;11.29;98.32;102197.63;1043883;28;20450;-56
2023/06/05 00:12:12;;;;;;;8.60;5.70;;;;;;;11.31;98.01;102194.75;1043774;28;20295;-56
2023/06/05 00:12:44;;;;;;;5.10;4.18;;;;;;;11.26;98.36;102202.50;1044232;28;20043;-56
2023/06/05 00:13:16;;;;;;;6.80;4.53;;;;;;;11.25;98.57;102200.84;1045212;28;20310;-48
2023/06/05 00:13:50;;;;;;;9.68;5.22;;;;;;;11.29;98.79;102202.94;1045085;28;20291;-49
2023/06/05 00:14:22;;;;;;;9.30;5.15;;;;;;;11.26;98.06;102191.84;1045454;28;20295;-56
2023/06/05 00:14:54;;;;;;;5.15;4.50;;;;;;;11.18;98.56;102190.09;1044539;28;20302;-55
2023/06/05 00:15:25;;;;;;;5.30;4.80;;;;;;;11.14;98.90;102192.28;1044737;28;20299;-56
2023/06/05 00:15:57;;;;;;;6.32;4.95;;;;;;;11.21;98.60;102195.03;1044030;28;20288;-56
2023/06/05 00:16:29;;;;;;;9.20;4.88;;;;;;;11.17;98.55;102193.75;1044086;28;20052;-56
2023/06/05 00:17:01;;;;;;;8.15;5.13;;;;;;;11.15;99.03;102187.78;1043851;28;20306;-56
2023/06/05 00:17:32;;;;;;;7.22;4.45;;;;;;;11.17;99.09;102187.59;1044141;28;20373;-56
2023/06/05 00:18:05;;;;;;;6.15;4.90;;;;;;;11.18;98.92;102198.06;1044418;28;20313;-56
2023/06/05 00:18:36;;;;;;;6.07;5.03;;;;;;;11.21;98.97;102195.03;1043875;28;20303;-56
2023/06/05 00:19:08;;;;;;;6.60;4.97;;;;;;;11.26;98.64;102192.66;1043681;28;20055;-56
2023/06/05 00:19:39;;;;;;;7.13;4.63;;;;;;;11.22;98.80;102195.88;1044658;28;20283;-55
2023/06/05 00:20:11;;;;;;;5.90;5.22;;;;;;;11.21;99.20;102199.53;1044601;28;20298;-56
2023/06/05 00:20:43;;;;;;;6.78;4.78;;;;;;;11.22;99.31;102196.69;1044463;28;20037;-56
2023/06/05 00:21:19;;;;;;;12.82;5.40;;;;;;;11.22;98.66;102191.34;1044213;28;20299;-54
2023/06/05 00:21:51;;;;;;;6.43;4.95;;;;;;;11.20;99.02;102198.72;1045293;28;20294;-45
2023/06/05 00:22:22;;;;;;;6.38;5.75;;;;;;;11.17;99.10;102198.28;1044261;28;20313;-45
2023/06/05 00:22:54;;;;;;;5.68;4.70;;;;;;;11.17;98.76;102196.44;1043217;28;20919;-48
2023/06/05 00:23:26;;;;;;;11.50;6.15;;;;;;;11.17;99.01;102198.28;1040026;28;20316;-44
2023/06/05 00:23:58;;;;;;;5.97;4.80;;;;;;;11.17;99.17;102199.09;1040191;28;20041;-44
2023/06/05 00:24:30;;;;;;;6.95;4.85;;;;;;;11.12;98.61;102201.50;1040607;28;20048;-53
2023/06/05 00:25:02;;;;;;;7.13;4.95;;;;;;;11.11;98.55;102198.00;1040713;28;20303;-49
2023/06/05 00:25:34;;;;;;;8.32;5.40;;;;;;;11.12;99.23;102196.16;1040572;28;20296;-49
2023/06/05 00:26:06;;;;;;;5.03;4.60;;;;;;;11.15;98.96;102195.78;1043112;28;20390;-47
2023/06/05 00:26:37;;;;;;;8.00;5.00;;;;;;;11.17;99.11;102193.75;1044526;28;20303;-51
2023/06/05 00:27:09;;;;;;;8.27;5.63;;;;;;;11.15;99.45;102196.63;1044020;28;20657;-48
2023/06/05 00:27:41;;;;;;;5.80;5.18;;;;;;;11.18;99.02;102198.06;1044092;28;20307;-47
2023/06/05 00:28:12;;;;;;;7.78;5.43;;;;;;;11.12;98.87;102191.66;1040064;28;20304;-47
2023/06/05 00:28:44;;;;;;;7.60;5.63;;;;;;;11.14;99.15;102194.13;1040187;28;20296;-48
2023/06/05 00:29:16;;;;;;;7.60;5.43;;;;;;;11.12;99.01;102196.16;1035744;28;20658;-47
2023/06/05 00:29:48;;;;;;;8.55;4.97;;;;;;;11.13;99.25;102197.81;1032409;28;20359;-46
2023/06/05 00:30:20;;;;;;;7.43;4.93;;;;;;;11.12;99.54;102197.00;1036758;28;20045;-46
2023/06/05 00:30:52;;;;;;;12.10;5.03;;;;;;;11.12;99.60;102191.66;1039770;28;20304;-47
2023/06/05 00:31:24;;;;;;;6.95;4.95;;;;;;;11.12;99.44;102197.00;1044103;28;20299;-45
2023/06/05 00:31:57;;;;;;;6.45;4.78;;;;;;;11.11;99.39;102191.84;1044274;28;20295;-46
2023/06/05 00:32:29;;;;;;;10.32;5.70;;;;;;;11.07;99.52;102191.41;1045354;28;20295;-43
2023/06/05 00:33:04;;;;;;;5.85;4.72;;;;;;;11.12;99.50;102202.31;1044536;28;20386;-55
2023/06/05 00:33:36;;;;;;;7.72;5.65;;;;;;;11.14;99.74;102192.28;1044037;28;20327;-56
2023/06/05 00:34:09;;;;;;;9.50;5.22;;;;;;;11.12;99.51;102190.84;1045275;28;20406;-55
2023/06/05 00:34:44;;;;;;;5.80;5.20;;;;;;;11.09;99.77;102191.22;1044034;28;20831;-56
2023/06/05 00:35:16;;;;;;;7.68;4.60;;;;;;;11.05;99.58;102196.09;1044730;28;20310;-54
2023/06/05 00:35:50;;;;;;;6.18;5.00;;;;;;;11.03;99.32;102186.63;1044598;28;20296;-56
2023/06/05 00:36:23;;;;;;;9.50;5.03;;;;;;;10.98;99.59;102197.03;1044879;28;20299;-48
2023/06/05 00:36:57;;;;;;;7.25;5.05;;;;;;;10.96;99.92;102196.38;1044763;28;20327;-46
2023/06/05 00:37:30;;;;;;;7.57;5.65;;;;;;;10.92;99.61;102192.41;1044535;28;20792;-47
2023/06/05 00:38:01;;;;;;;9.20;5.18;;;;;;;10.97;100.00;102190.03;1044499;28;20295;-49
2023/06/05 00:38:33;;;;;;;7.47;4.60;;;;;;;10.98;99.80;102197.03;1044479;28;20366;-46
2023/06/05 00:39:04;;;;;;;8.80;5.38;;;;;;;10.93;100.00;102192.22;1044603;28;20307;-46
2023/06/05 00:39:36;;;;;;;7.20;5.15;;;;;;;10.96;99.92;102191.06;1044041;28;20312;-46
2023/06/05 00:40:08;;;;;;;6.53;5.00;;;;;;;10.96;99.94;102191.88;1043917;28;20626;-47
2023/06/05 00:40:40;;;;;;;6.18;5.35;;;;;;;10.98;100.00;102199.69;1043933;28;20414;-43
2023/06/05 00:41:12;;;;;;;8.95;4.68;;;;;;;10.93;100.00;102196.72;1044410;28;20288;-48
2023/06/05 00:41:44;;;;;;;7.97;5.28;;;;;;;10.96;100.00;102191.06;1043843;28;20350;-47
2023/06/05 00:42:16;;;;;;;10.27;5.20;;;;;;;10.97;100.00;102184.72;1043685;28;20967;-45
2023/06/05 00:42:48;;;;;;;8.98;5.88;;;;;;;10.96;100.00;102191.06;1044398;28;20321;-45
2023/06/05 00:43:19;;;;;;;4.50;4.10;;;;;;;10.99;100.00;102193.34;1043954;28;20295;-46
2023/06/05 00:43:51;;;;;;;6.47;4.78;;;;;;;10.97;100.00;102187.38;1043945;28;20309;-50
2023/06/05 00:44:23;;;;;;;6.90;5.75;;;;;;;10.94;100.00;102182.38;1044104;28;20307;-46
2023/06/05 00:44:54;;;;;;;7.15;5.15;;;;;;;10.88;100.00;102183.97;1043013;28;20365;-47
2023/06/05 00:45:26;;;;;;;6.88;5.10;;;;;;;10.91;100.00;102190.75;1043792;28;20295;-46
2023/06/05 00:46:02;;;;;;;6.90;5.55;;;;;;;10.84;100.00;102183.50;1043614;28;20299;-45
2023/06/05 00:46:34;;;;;;;7.07;5.25;;;;;;;10.90;100.00;102191.78;1042460;28;20303;-46
2023/06/05 00:47:06;;;;;;;9.18;5.30;;;;;;;10.92;100.00;102184.41;1044241;28;20298;-45
2023/06/05 00:47:38;;;;;;;6.60;5.57;;;;;;;10.88;100.00;102186.63;1044143;28;20315;-47
2023/06/05 00:48:10;;;;;;;8.60;5.47;;;;;;;10.90;100.00;102189.09;1048114;28;20044;-45
2023/06/05 00:48:43;;;;;;;8.65;5.22;;;;;;;10.90;100.00;102186.44;1045031;28;20690;-53
2023/06/05 00:49:18;;;;;;;5.68;4.72;;;;;;;10.90;100.00;102189.09;1046151;28;20357;-46
2023/06/05 00:49:50;;;;;;;7.00;5.68;;;;;;;10.87;100.00;102186.81;1047230;28;20812;-46
2023/06/05 00:50:22;;;;;;;7.07;5.15;;;;;;;10.90;100.00;102189.09;1042022;28;20658;-44
2023/06/05 00:50:54;;;;;;;7.05;5.57;;;;;;;10.84;100.00;102183.50;1040374;28;20369;-55
2023/06/05 00:51:27;;;;;;;11.25;5.72;;;;;;;10.88;100.00;102188.47;1040068;28;20291;-48
2023/06/05 00:51:59;;;;;;;7.07;5.25;;;;;;;10.83;100.00;102184.53;1036727;28;20352;-48
2023/06/05 00:52:32;;;;;;;6.60;5.38;;;;;;;10.80;100.00;102187.56;1036722;28;20307;-44
2023/06/05 00:53:06;;;;;;;5.32;4.78;;;;;;;10.78;100.00;102189.59;1035749;28;20297;-48
2023/06/05 00:53:39;;;;;;;8.93;5.68;;;;;;;10.79;100.00;102188.56;1035651;28;20814;-47
2023/06/05 00:54:13;;;;;;;7.82;5.70;;;;;;;10.79;100.00;102190.41;1036890;28;20292;-45
2023/06/05 00:54:45;;;;;;;7.47;6.03;;;;;;;10.78;100.00;102192.25;1041589;28;20386;-48
2023/06/05 00:55:16;;;;;;;8.77;6.50;;;;;;;10.78;100.00;102186.91;1040777;28;20303;-50
2023/06/05 00:55:48;;;;;;;6.47;5.78;;;;;;;10.73;100.00;102181.31;1044001;28;20295;-55
2023/06/05 00:56:22;;;;;;;9.52;5.97;;;;;;;10.78;100.00;102186.91;1035811;28;20308;-55
2023/06/05 00:56:54;;;;;;;5.93;5.32;;;;;;;10.77;100.00;102185.28;1036421;28;20304;-56
2023/06/05 00:57:28;;;;;;;8.15;6.03;;;;;;;10.82;100.00;102187.38;1031708;28;20818;-56
2023/06/05 00:58:01;;;;;;;8.38;5.55;;;;;;;10.81;100.00;102186.56;1033125;28;20302;-56
2023/06/05 00:58:33;;;;;;;6.95;5.47;;;;;;;10.78;100.00;102189.59;1036459;28;20316;-56
2023/06/05 00:59:06;;;;;;;6.38;5.32;;;;;;;10.77;100.00;102187.09;1041029;28;20369;-55
2023/06/05 00:59:37;;;;;;;7.32;6.40;;;;;;;10.76;100.00;102180.94;1044626;28;20406;-56
2023/06/05 01:00:12;;;;;;;7.75;5.85;;;;;;;10.74;100.00;102184.81;1044227;28;20657;-45
2023/06/05 01:00:45;;;;;;;6.38;5.35;;;;;;;10.75;100.00;102183.81;1044196;28;20298;-49
2023/06/05 01:01:17;;;;;;;6.22;5.63;;;;;;;10.77;100.00;102179.13;1040579;28;20300;-55
2023/06/05 01:01:53;;;;;;;7.88;6.05;;;;;;;10.77;100.00;102185.28;1041349;28;20825;-51
2023/06/05 01:02:25;;;;;;;5.18;4.78;;;;;;;10.77;100.00;102181.78;1044601;28;20314;-55
2023/06/05 01:02:58;;;;;;;5.90;5.30;;;;;;;10.77;100.00;102185.28;1044421;28;20306;-56
2023/06/05 01:03:33;;;;;;;8.57;6.70;;;;;;;10.79;100.00;102175.25;1044054;28;20380;-55
2023/06/05 01:04:05;;;;;;;7.50;6.38;;;;;;;10.77;100.00;102182.59;1039767;28;20296;-55
2023/06/05 01:04:40;;;;;;;6.38;5.78;;;;;;;10.77;100.00;102187.94;1039507;28;20393;-54
2023/06/05 01:05:12;;;;;;;6.10;5.50;;;;;;;10.76;100.00;102185.44;1039756;28;20295;-55
2023/06/05 01:05:47;;;;;;;5.80;5.20;;;;;;;10.71;100.00;102182.53;1038614;28;20856;-54
2023/06/05 01:06:19;;;;;;;8.23;7.20;;;;;;;10.71;100.00;102186.00;1039937;28;20296;-56
2023/06/05 01:06:53;;;;;;;6.47;5.55;;;;;;;10.68;100.00;102182.84;1040131;28;20080;-55
2023/06/05 01:07:27;;;;;;;7.72;5.80;;;;;;;10.67;100.00;102179.38;1041486;28;20308;-45
2023/06/05 01:08:03;;;;;;;6.05;5.55;;;;;;;10.66;100.00;102185.72;1042822;28;20395;-48
2023/06/05 01:08:41;;;;;;;6.38;5.47;;;;;;;10.66;100.00;102177.72;1045308;28;20367;-53
2023/06/05 01:09:15;;;;;;;6.43;5.13;;;;;;;10.58;100.00;102185.81;1039978;28;20284;-56
2023/06/05 01:09:47;;;;;;;7.60;5.78;;;;;;;10.60;100.00;102186.44;1038014;28;20307;-55
2023/06/05 01:10:18;;;;;;;8.57;6.47;;;;;;;10.61;100.00;102188.09;1039513;28;20428;-55
2023/06/05 01:10:52;;;;;;;8.18;5.45;;;;;;;10.65;100.00;102183.22;1041699;28;20292;-56
2023/06/05 01:11:50;;;;;;;6.05;5.45;;;;;;;10.66;100.00;102185.72;1040502;28;20326;-55
2023/06/05 01:12:38;;;;;;;7.03;5.28;;;;;;;10.59;100.00;102184.78;1044409;28;20800;-55
2023/06/05 01:13:15;;;;;;;9.18;6.32;;;;;;;10.61;100.00;102195.28;1037674;28;20849;-44
2023/06/05 01:14:07;;;;;;;6.40;5.72;;;;;;;10.55;100.00;102183.50;1039598;28;20369;-45
2023/06/05 01:14:40;;;;;;;;;;;;;;;10.58;100.00;102185.81;1035566;28;20301;-46
2023/06/05 01:15:12;;;;;;;9.52;6.28;;;;;;;10.57;100.00;102194.81;1035665;28;19921;-47
2023/06/05 01:15:44;;;;;;;13.55;6.22;;;;;;;10.57;100.00;102186.81;1035345;28;20308;-49
2023/06/05 01:16:15;;;;;;;10.85;6.00;;;;;;;10.59;100.00;102183.97;1031995;28;20320;-46
2023/06/05 01:16:54;;;;;;;9.35;6.10;;;;;;;10.56;100.00;102184.34;1035858;28;20303;-47
2023/06/05 01:17:28;;;;;;;9.35;6.63;;;;;;;10.53;100.00;102181.03;1043608;28;20385;-50
2023/06/05 01:18:00;;;;;;;10.85;5.65;;;;;;;10.48;100.00;102185.25;1049887;28;20294;-45
2023/06/05 01:18:33;;;;;;;8.60;6.40;;;;;;;10.54;100.00;102187.19;1047629;28;20378;-45
2023/06/05 01:19:04;;;;;;;9.60;6.50;;;;;;;10.49;100.00;102186.91;1046795;28;20310;-44
2023/06/05 01:19:39;;;;;;;8.93;6.40;;;;;;;10.50;100.00;102188.56;1040605;28;20322;-56
2023/06/05 01:20:11;;;;;;;11.77;5.70;;;;;;;10.54;100.00;102187.19;1040669;28;20374;-44
2023/06/05 01:20:46;;;;;;;15.18;6.70;;;;;;;10.48;100.00;102190.59;1040293;28;20292;-55
2023/06/05 01:21:19;;;;;;;8.63;6.00;;;;;;;10.47;100.00;102178.28;1038574;28;20308;-56
2023/06/05 01:21:51;;;;;;;9.20;6.63;;;;;;;10.44;100.00;102187.47;1042034;28;20382;-56
2023/06/05 01:22:25;;;;;;;6.53;5.78;;;;;;;10.46;100.00;102187.28;1040994;28;20316;-55
2023/06/05 01:22:57;;;;;;;7.78;6.15;;;;;;;10.37;100.00;102191.00;1038704;28;20295;-55
2023/06/05 01:23:29;;;;;;;8.68;5.88;;;;;;;10.39;100.00;102183.66;1043586;28;21094;-55
2023/06/05 01:24:02;;;;;;;5.80;5.22;;;;;;;10.41;100.00;102187.84;1039694;28;20678;-55
2023/06/05 01:24:35;;;;;;;7.47;6.47;;;;;;;10.38;100.00;102187.34;1040724;28;20303;-56
2023/06/05 01:25:09;;;;;;;8.38;6.80;;;;;;;10.36;100.00;102178.72;1043623;28;20306;-56
2023/06/05 01:25:42;;;;;;;6.53;5.93;;;;;;;10.34;100.00;102184.22;1036087;28;20316;-55
2023/06/05 01:26:18;;;;;;;8.80;5.63;;;;;;;10.34;100.00;102186.06;1030705;28;20455;-56
2023/06/05 01:27:10;;;;;;;8.27;6.25;;;;;;;10.31;100.00;102181.91;1023607;28;20329;-55
2023/06/05 01:27:48;;;;;;;7.85;5.90;;;;;;;10.29;100.00;102183.13;1031241;28;20297;-56
2023/06/05 01:28:23;;;;;;;7.28;5.57;;;;;;;10.27;100.00;102179.81;1039447;28;20299;-55
2023/06/05 01:28:55;;;;;;;9.90;6.05;;;;;;;10.26;100.00;102183.47;1039416;28;20357;-56
2023/06/05 01:29:34;;;;;;;6.50;5.78;;;;;;;10.30;100.00;102179.44;1040714;28;20371;-44
2023/06/05 01:30:28;;;;;;;7.50;5.82;;;;;;;10.25;100.00;102181.81;1038695;28;20462;-56
2023/06/05 01:31:07;;;;;;;9.20;6.30;;;;;;;10.19;100.00;102178.03;1039668;28;20340;-56
2023/06/05 01:31:41;;;;;;;8.15;5.50;;;;;;;10.18;100.00;102177.19;1035883;28;20293;-56
2023/06/05 01:32:19;;;;;;;8.98;7.55;;;;;;;10.18;100.00;102177.19;1037458;28;20304;-56
2023/06/05 01:32:54;;;;;;;8.88;6.30;;;;;;;10.16;100.00;102176.56;1036973;28;20293;-56
2023/06/05 01:33:30;;;;;;;9.88;6.80;;;;;;;10.15;100.00;102182.06;1037823;28;20382;-56
2023/06/05 01:34:05;;;;;;;7.20;6.50;;;;;;;10.17;100.00;102178.22;1039795;28;20300;-56
2023/06/05 01:34:37;;;;;;;10.88;6.90;;;;;;;10.16;100.00;102179.22;1044093;28;20649;-56
2023/06/05 01:35:10;;;;;;;8.48;6.95;;;;;;;10.10;100.00;102173.75;1041470;28;20796;-56
2023/06/05 01:35:44;;;;;;;11.02;6.63;;;;;;;10.12;100.00;102183.22;1044102;28;20343;-56
2023/06/05 01:36:16;;;;;;;10.48;6.53;;;;;;;10.07;100.00;102180.28;1039928;28;20441;-46
2023/06/05 01:36:53;;;;;;;7.30;6.07;;;;;;;10.07;100.00;102174.94;1038962;28;20323;-49
2023/06/05 01:37:27;;;;;;;11.77;6.88;;;;;;;10.06;100.00;102175.97;1044641;28;20722;-54
2023/06/05 01:38:02;;;;;;;9.32;6.97;;;;;;;10.12;100.00;102171.75;1041901;28;20288;-48
2023/06/05 01:38:34;;;;;;;10.25;7.22;;;;;;;10.10;100.00;102177.25;1042393;28;20770;-48
2023/06/05 01:39:07;;;;;;;9.38;6.50;;;;;;;10.06;100.00;102173.28;1039319;28;20300;-45
2023/06/05 01:39:39;;;;;;;11.20;7.22;;;;;;;10.03;100.00;102168.34;1036938;28;20315;-47
2023/06/05 01:40:14;;;;;;;11.15;6.47;;;;;;;10.00;100.00;102165.22;1036491;28;20296;-43
2023/06/05 01:40:47;;;;;;;11.45;6.63;;;;;;;10.07;100.00;102174.13;1036474;28;20304;-46
2023/06/05 01:41:19;;;;;;;9.02;7.25;;;;;;;10.04;100.00;102167.31;1036278;28;20300;-46
2023/06/05 01:41:52;;;;;;;9.15;8.35;;;;;;;10.07;100.00;102164.31;1036612;28;20322;-48
2023/06/05 01:42:25;;;;;;;7.82;7.03;;;;;;;10.06;100.00;102167.97;1032693;28;20309;-48
2023/06/05 01:42:57;;;;;;;13.00;7.28;;;;;;;10.02;100.00;102168.53;1028339;28;20313;-52
2023/06/05 01:43:32;;;;;;;10.20;7.35;;;;;;;10.08;100.00;102171.28;1037037;28;20395;-45
2023/06/05 01:44:05;;;;;;;8.65;7.75;;;;;;;10.04;100.00;102166.50;1036767;28;20308;-44
2023/06/05 01:44:37;;;;;;;10.73;7.70;;;;;;;10.04;100.00;102166.50;1042251;28;20299;-45
2023/06/05 01:45:10;;;;;;;9.07;6.95;;;;;;;10.05;100.00;102166.31;1043593;28;20438;-44
2023/06/05 01:45:43;;;;;;;8.98;7.65;;;;;;;10.05;100.00;102166.31;1044490;28;20315;-45
2023/06/05 01:46:17;;;;;;;10.27;7.35;;;;;;;10.03;100.00;102168.34;1047840;28;20334;-44
2023/06/05 01:46:50;;;;;;;9.15;7.85;;;;;;;10.01;100.00;102166.88;1041564;28;20355;-44
2023/06/05 01:47:22;;;;;;;11.23;7.53;;;;;;;10.00;100.00;102160.72;1042871;28;20317;-46
2023/06/05 01:47:56;;;;;;;10.85;7.85;;;;;;;10.00;100.00;102162.56;1043616;28;20859;-45
2023/06/05 01:48:30;;;;;;;10.05;7.93;;;;;;;9.99;100.00;102166.22;1035642;28;20315;-45
2023/06/05 01:49:02;;;;;;;9.38;8.43;;;;;;;9.95;100.00;102163.09;1037461;28;20372;-45
2023/06/05 01:49:34;;;;;;;11.85;8.25;;;;;;;10.00;100.00;102174.03;1040522;28;20308;-54
2023/06/05 01:50:12;;;;;;;16.55;8.18;;;;;;;10.00;100.00;102165.22;1038599;28;20296;-45
2023/06/05 01:50:44;;;;;;;9.57;8.00;;;;;;;9.96;100.00;102164.75;1039851;28;20816;-45
2023/06/05 01:51:16;;;;;;;10.00;8.10;;;;;;;9.97;100.00;102168.22;1043785;28;20299;-46
2023/06/05 01:51:54;;;;;;;8.25;6.88;;;;;;;9.95;100.00;102165.75;1040654;28;20300;-51
2023/06/05 01:52:26;;;;;;;9.57;6.68;;;;;;;9.91;100.00;102161.81;1046888;28;20411;-46
2023/06/05 01:53:00;;;;;;;11.50;7.55;;;;;;;9.89;100.00;102166.47;1048540;28;20295;-45
2023/06/05 01:53:32;;;;;;;7.75;6.80;;;;;;;9.84;100.00;102160.84;1048770;28;20800;-54
2023/06/05 01:54:05;;;;;;;12.30;8.13;;;;;;;9.83;100.00;102169.84;1047683;28;20849;-55
2023/06/05 01:54:38;;;;;;;9.07;7.82;;;;;;;9.84;100.00;102159.00;1048081;28;20325;-51
2023/06/05 01:55:20;;;;;;;14.68;8.93;;;;;;;9.86;100.00;102156.16;1049047;28;20294;-55
2023/06/05 01:55:53;;;;;;;8.32;6.50;;;;;;;9.84;100.00;102169.66;1048210;28;20303;-47
2023/06/05 01:56:25;;;;;;;8.15;7.28;;;;;;;9.80;100.00;102159.53;1044410;28;20390;-45
2023/06/05 01:56:58;;;;;;;10.60;7.75;;;;;;;9.79;100.00;102161.38;1043729;28;20685;-44
2023/06/05 01:57:31;;;;;;;13.30;7.75;;;;;;;9.78;100.00;102164.22;1044230;28;20361;-48
2023/06/05 01:58:03;;;;;;;12.50;7.93;;;;;;;9.74;100.00;102165.59;1047439;28;20468;-46
2023/06/05 01:58:36;;;;;;;9.75;7.60;;;;;;;9.78;100.00;102166.88;1043687;28;20357;-44
2023/06/05 01:59:08;;;;;;;9.52;8.13;;;;;;;9.77;100.00;102163.41;1043300;28;20812;-45
2023/06/05 01:59:40;;;;;;;12.02;7.40;;;;;;;9.81;100.00;102158.53;1044070;28;20296;-45
2023/06/05 02:00:13;;;;;;;10.93;7.43;;;;;;;9.78;100.00;102158.91;1048607;28;20393;-56
2023/06/05 02:00:45;;;;;;;10.52;7.85;;;;;;;9.77;100.00;102162.56;1044480;28;20298;-44
2023/06/05 02:01:18;;;;;;;12.10;8.20;;;;;;;9.83;100.00;102162.69;1039183;28;20419;-44
2023/06/05 02:01:51;;;;;;;13.30;8.10;;;;;;;9.80;100.00;102157.72;1040665;28;20422;-46
2023/06/05 02:02:23;;;;;;;13.43;9.23;;;;;;;9.84;100.00;102159.00;1044773;28;20291;-46
2023/06/05 02:02:55;;;;;;;16.92;9.20;;;;;;;9.84;100.00;102164.31;1044616;28;20299;-44
2023/06/05 02:03:27;;;;;;;11.82;8.55;;;;;;;9.87;100.00;102157.84;1047959;28;20294;-47
2023/06/05 02:03:59;;;;;;;11.95;8.43;;;;;;;9.88;100.00;102162.16;1047849;28;20286;-46
2023/06/05 02:04:30;;;;;;;15.90;9.07;;;;;;;9.84;100.00;102164.31;1044089;28;20307;-44
2023/06/05 02:05:02;;;;;;;8.52;7.63;;;;;;;9.88;100.00;102164.81;1047668;28;20290;-45
2023/06/05 02:05:35;;;;;;;10.43;8.38;;;;;;;9.90;100.00;102163.63;1044721;28;22031;-45
2023/06/05 02:06:07;;;;;;;13.40;7.78;;;;;;;9.88;100.00;102164.81;1044036;28;20331;-43
2023/06/05 02:06:42;;;;;;;11.63;8.45;;;;;;;9.89;100.00;102166.47;1039638;28;20303;-47
2023/06/05 02:07:16;;;;;;;14.00;8.70;;;;;;;9.83;100.00;102167.16;1036424;28;20300;-51
2023/06/05 02:07:53;;;;;;;11.45;7.80;;;;;;;9.88;100.00;102164.81;1032831;28;20380;-46
2023/06/05 02:08:25;;;;;;;8.50;7.40;;;;;;;9.88;100.00;102168.31;1037477;28;20347;-45
2023/06/05 02:08:57;;;;;;;9.38;7.78;;;;;;;9.86;100.00;102164.16;1041123;28;20371;-46
2023/06/05 02:09:34;;;;;;;11.07;8.15;;;;;;;9.85;100.00;102165.16;1041118;28;20311;-47
2023/06/05 02:10:06;;;;;;;12.57;8.30;;;;;;;9.89;100.00;102161.16;1043528;28;20719;-46
2023/06/05 02:10:43;;;;;;;11.07;7.80;;;;;;;9.90;100.00;102162.81;1043255;28;20315;-46
2023/06/05 02:11:15;;;;;;;14.75;8.60;;;;;;;9.86;100.00;102162.34;1043300;28;20432;-47
2023/06/05 02:11:48;;;;;;;15.02;8.73;;;;;;;9.82;100.00;102161.03;1039564;28;20362;-47
2023/06/05 02:12:20;;;;;;;9.43;7.75;;;;;;;9.81;100.00;102161.19;1040435;28;20308;-49
2023/06/05 02:12:51;;;;;;;11.88;7.45;;;;;;;9.82;100.00;102160.19;1043359;28;20394;-46
2023/06/05 02:13:24;;;;;;;11.02;8.02;;;;;;;9.84;100.00;102160.84;1044049;28;20284;-48
2023/06/05 02:13:56;;;;;;;11.40;7.72;;;;;;;9.85;100.00;102165.97;1043839;28;20307;-45
2023/06/05 02:14:28;;;;;;;9.73;7.43;;;;;;;9.86;100.00;102161.47;1043258;28;20299;-47
2023/06/05 02:15:00;;;;;;;10.38;7.72;;;;;;;9.85;100.00;102159.84;1043683;28;20296;-48
2023/06/05 02:15:35;;;;;;;11.55;7.55;;;;;;;9.85;100.00;102162.50;1043795;28;20577;-47
2023/06/05 02:16:10;;;;;;;8.70;7.80;;;;;;;9.86;100.00;102169.47;1043351;28;20360;-47
2023/06/05 02:16:43;;;;;;;9.32;7.78;;;;;;;9.84;100.00;102161.66;1040425;28;20350;-46
2023/06/05 02:17:15;;;;;;;11.35;8.93;;;;;;;9.81;100.00;102158.53;1039451;28;20809;-50
2023/06/05 02:17:58;;;;;;;10.63;8.10;;;;;;;9.82;100.00;102154.88;1040459;28;20306;-49
2023/06/05 02:18:30;;;;;;;13.25;7.63;;;;;;;9.82;100.00;102165.50;1042726;28;20304;-56
2023/06/05 02:19:03;;;;;;;10.27;7.53;;;;;;;9.78;100.00;102172.22;1041703;28;20052;-47
2023/06/05 02:19:35;;;;;;;8.90;7.95;;;;;;;9.76;100.00;102167.06;1044173;28;20723;-44
2023/06/05 02:20:07;;;;;;;11.77;8.13;;;;;;;9.74;100.00;102162.94;1044343;28;20299;-55
2023/06/05 02:20:40;;;;;;;11.30;7.60;;;;;;;9.76;100.00;102164.41;1043712;28;20986;-56
2023/06/05 02:21:15;;;;;;;10.27;7.57;;;;;;;9.72;100.00;102168.44;1043684;28;20310;-55
2023/06/05 02:21:47;;;;;;;10.25;7.93;;;;;;;9.75;100.00;102156.59;1039290;28;20643;-56
2023/06/05 02:22:23;;;;;;;13.48;8.93;;;;;;;9.73;100.00;102164.75;1039950;28;20307;-55
2023/06/05 02:22:55;;;;;;;12.02;7.88;;;;;;;9.73;100.00;102167.41;1043786;28;20299;-56
2023/06/05 02:23:26;;;;;;;9.73;8.05;;;;;;;9.69;100.00;102163.47;1043359;28;20298;-56
2023/06/05 02:23:59;;;;;;;13.45;8.90;;;;;;;9.63;100.00;102164.19;1043814;28;20307;-56
2023/06/05 02:24:31;;;;;;;9.68;8.50;;;;;;;9.63;100.00;102166.00;1043555;28;20311;-55
2023/06/05 02:25:05;;;;;;;9.27;8.30;;;;;;;9.64;100.00;102162.34;1044715;28;20357;-54
2023/06/05 02:25:39;;;;;;;10.00;8.10;;;;;;;9.67;100.00;102164.66;1045943;28;20649;-56
2023/06/05 02:26:10;;;;;;;9.68;8.15;;;;;;;9.65;100.00;102159.50;1048752;28;20826;-45
2023/06/05 02:26:43;;;;;;;11.80;8.50;;;;;;;9.65;100.00;102162.16;1048335;28;20297;-43
2023/06/05 02:27:16;;;;;;;12.30;9.13;;;;;;;9.66;100.00;102160.34;1048065;28;20287;-45
2023/06/05 02:27:47;;;;;;;9.68;7.95;;;;;;;9.63;100.00;102166.00;1047674;28;20807;-46
2023/06/05 02:28:20;;;;;;;11.45;8.57;;;;;;;9.60;100.00;102168.03;1047514;28;20361;-47
2023/06/05 02:28:53;;;;;;;10.75;7.82;;;;;;;9.58;100.00;102161.19;1043643;28;20303;-46
2023/06/05 02:29:25;;;;;;;11.13;8.32;;;;;;;9.59;100.00;102161.06;1043262;28;20317;-45
2023/06/05 02:29:57;;;;;;;9.85;8.77;;;;;;;9.60;100.00;102157.38;1044264;28;20291;-46
2023/06/05 02:30:29;;;;;;;10.68;8.35;;;;;;;9.63;100.00;102160.69;1044333;28;20311;-44
2023/06/05 02:31:01;;;;;;;11.35;8.70;;;;;;;9.63;100.00;102152.72;1047595;28;20298;-45
2023/06/05 02:31:33;;;;;;;10.45;7.95;;;;;;;9.63;100.00;102160.69;1047863;28;20803;-46
2023/06/05 02:32:06;;;;;;;9.65;8.57;;;;;;;9.59;100.00;102158.41;1047852;28;20318;-44
2023/06/05 02:32:41;;;;;;;9.82;8.77;;;;;;;9.60;100.00;102157.38;1047936;28;20417;-46
2023/06/05 02:33:14;;;;;;;12.48;8.50;;;;;;;9.60;100.00;102156.56;1048129;28;20290;-44
2023/06/05 02:33:45;;;;;;;13.50;8.55;;;;;;;9.62;100.00;102153.72;1043557;28;20899;-46